Terminal Aerodrome Forecast
Issued by NWS Atlanta, GA

Home | Current Version | Previous Version | Text Only | Print | Product List | Glossary On
Versions: 1 2 3 4 5 6 7 8 9 10 11 12 13 14 15 16
694
FTUS42 KFFC 260540
TAFCSG
TAF
KCSG 260540Z 2606/2706 00000KT P6SM SCT100
     FM261600 19008KT P6SM SCT045 PROB30 2619/2623 4SM -TSRA BR
      BKN035CB
     FM270200 19005KT P6SM SCT250=

USA.gov is the U.S. government's official web portal to all federal, state and local government web resources and services.